• Join FlightAware (Why Join?)
  • Login
  • US Flag 
11:34PM EST


 

Airport Tracker/Info


-or-


 

Live Flight TrackerFlight Track Log ✈ EJA646 ✈ 25-Apr-2013 ✈ KJQF - KMIA

Flight Track Log - Related Links

Times and Time Zones

All times are in EDT time to prevent confusion due to time zone crossing. See the EJA646 flight status page for this flight to view local times or setup timezone preferences in your user account.

Time Position Orientation Groundspeed Altitude Reporting Facility
EDT Latitude Longitude Course Direction KTS MPH feet Rate Location/Type
11:12AM 35.3956 -80.7089 North 147 169 1,700  Level Atlanta Center
11:13AM 35.4581 -80.6986 North 194 223 3,400 1,260 Climbing Atlanta Center
11:14AM 35.4647 -80.6397 82° East 230 265 4,700 960 Climbing Atlanta Center
11:14AM 35.4519 -80.6353 164° South 231 266 4,800 1,500 Climbing Atlanta Center
11:15AM 35.3939 -80.6453 188° South 217 250 6,700 2,700 Climbing Atlanta Center
11:16AM 35.3281 -80.6836 205° Southwest 233 268 10,200 3,420 Climbing Atlanta Center
11:17AM 35.2600 -80.7144 200° South 254 292 13,600 3,120 Climbing Atlanta Center
11:18AM 35.1881 -80.7478 201° Southwest 265 305 16,500 2,760 Climbing Atlanta Center
11:19AM 35.1111 -80.7636 190° South 276 318 19,200 2,520 Climbing Atlanta Center
11:21AM 34.9519 -80.8031 191° South 293 337 24,100 2,220 Climbing Jacksonville Center
11:22AM 34.8750 -80.8203 190° South 301 346 25,900 1,860 Climbing Jacksonville Center
11:23AM 34.7858 -80.8450 193° South 320 368 27,900 1,980 Climbing Jacksonville Center
11:24AM 34.6942 -80.8625 189° South 330 380 29,900 1,680 Climbing Jacksonville Center
11:25AM 34.6028 -80.8897 194° South 339 390 31,300 1,260 Climbing Jacksonville Center
11:26AM 34.5050 -80.8972 184° South 344 396 32,500 1,080 Climbing Jacksonville Center
11:27AM 34.4008 -80.9119 187° South 368 423 33,500 720 Climbing Jacksonville Center
11:28AM 34.2822 -80.9222 184° South 382 440 34,000 240 Climbing Jacksonville Center
11:29AM 34.1861 -80.9219 180° South 383 441 34,000  Level Jacksonville Center
11:30AM 34.0717 -80.9319 184° South 401 461 34,000  Level Jacksonville Center
11:31AM 33.9547 -80.9397 183° South 414 476 34,000  Level Jacksonville Center
11:32AM 33.8381 -80.9497 184° South 419 482 34,000  Level Jacksonville Center
11:33AM 33.7236 -80.9572 183° South 419 482 34,000  Level Jacksonville Center
11:34AM 33.6067 -80.9647 183° South 419 482 34,000 240 Level Jacksonville Center
11:35AM 33.4900 -80.9750 184° South 419 482 34,500 900 Climbing Jacksonville Center
11:36AM 33.3733 -80.9800 182° South 419 482 35,900 1,440 Climbing Jacksonville Center
11:37AM 33.2669 -80.9872 183° South 412 474 37,400 1,440 Climbing Jacksonville Center
11:38AM 33.1628 -80.9942 183° South 392 451 38,800 1,140 Climbing Jacksonville Center
11:39AM 33.0564 -80.9992 182° South 387 445 39,700 600 Climbing Jacksonville Center
11:40AM 32.9500 -81.0064 183° South 387 445 40,000 120 Climbing Jacksonville Center
11:41AM 32.8372 -81.0161 184° South 387 445 40,000  Level Jacksonville Center
11:42AM 32.7206 -81.0233 183° South 406 467 40,000  Level Jacksonville Center
11:43AM 32.6036 -81.0283 182° South 417 480 40,000  Level Jacksonville Center
11:44AM 32.4869 -81.0381 184° South 422 486 40,000  Level Jacksonville Center
11:45AM 32.3639 -81.0456 183° South 405 466 40,000  Level Jacksonville Center
11:46AM 32.2617 -81.0500 182° South 410 472 40,000  Level Jacksonville Center
11:47AM 32.1325 -81.0575 183° South 422 486 40,000  Level Jacksonville Center
11:48AM 32.0092 -81.0625 182° South 427 491 40,000  Level Jacksonville Center
11:49AM 31.9050 -81.0742 185° South 434 499 40,000  Level Jacksonville Center
11:50AM 31.7756 -81.0792 182° South 423 487 40,000  Level Jacksonville Center
11:51AM 31.6611 -81.0889 184° South 423 487 40,000  Level Jacksonville Center
11:52AM 31.5547 -81.0958 183° South 423 487 40,000  Level Jacksonville Center
11:53AM 31.4231 -81.1031 183° South 428 493 40,000  Level Jacksonville Center
11:54AM 31.3147 -81.1100 183° South 428 493 40,000  Level Jacksonville Center
11:55AM 31.1978 -81.1197 184° South 428 493 40,000  Level Jacksonville Center
11:56AM 31.0789 -81.1267 183° South 428 493 40,000  Level Jacksonville Center
11:57AM 30.9600 -81.1336 183° South 428 493 40,000  Level Jacksonville Center
11:58AM 30.8411 -81.1433 184° South 428 493 40,000  Level Jacksonville Center
11:59AM 30.7203 -81.1478 182° South 428 493 40,000  Level Jacksonville Center
12:00PM 30.6014 -81.1550 183° South 428 493 40,000  Level Jacksonville Center
12:01PM 30.4781 -81.1475 177° South 433 498 40,000  Level Jacksonville Center
12:02PM 30.3547 -81.1450 179° South 440 506 40,000  Level Jacksonville Center
12:03PM 30.2317 -81.1422 179° South 440 506 40,000  Level Jacksonville Center
12:04PM 30.1144 -81.1350 177° South 440 506 40,000  Level Jacksonville Center
12:05PM 29.9872 -81.1347 180° South 440 506 40,000  Level Jacksonville Center
12:06PM 29.8619 -81.1322 179° South 440 506 40,000  Level Jacksonville Center
12:07PM 29.7408 -81.1272 178° South 440 506 40,000  Level Jacksonville Center
12:08PM 29.6175 -81.1247 179° South 440 506 40,000  Level Jacksonville Center
12:09PM 29.4903 -81.1222 179° South 440 506 40,000  Level Jacksonville Center
12:10PM 29.3669 -81.1172 178° South 440 506 40,000  Level Jacksonville Center
12:12PM 29.1219 -81.0444 165° South 447 514 40,000  Level Miami Center
12:13PM 29.0006 -80.9947 160° South 458 527 40,000  Level Miami Center
12:14PM 28.8644 -80.9375 160° South 465 535 40,000  Level Miami Center
12:15PM 28.7364 -80.8878 161° South 478 550 40,000  Level Miami Center
12:16PM 28.6147 -80.8386 160° South 478 550 40,000  Level Miami Center
12:17PM 28.4911 -80.7892 161° South 478 550 40,000  Level Miami Center
12:18PM 28.3650 -80.7378 160° South 478 550 40,000  Level Miami Center
12:19PM 28.2411 -80.6886 161° South 478 550 40,000  Level Miami Center
12:20PM 28.1172 -80.6397 161° South 472 543 40,000 -1,020 Level Miami Center
12:21PM 27.9911 -80.5956 163° South 477 549 38,000 -2,280 Descending Miami Center
12:22PM 27.8692 -80.5517 162° South 477 549 35,500 -2,400 Descending Miami Center
12:23PM 27.7450 -80.5122 164° South 467 537 33,200 -2,400 Descending Miami Center
12:24PM 27.6292 -80.4711 163° South 455 524 30,800 -2,400 Descending Miami Center
12:25PM 27.5133 -80.4253 161° South 449 517 28,500 -2,400 Descending Miami Center
12:26PM 27.3933 -80.3772 160° South 449 517 26,100 -2,280 Descending Miami Center
12:27PM 27.2756 -80.3292 160° South 454 522 24,000 -1,680 Descending Miami Center
12:28PM 27.1658 -80.2839 160° South 447 514 22,800 -1,380 Descending Miami Center
12:29PM 27.0542 -80.2408 161° South 435 501 21,300 -1,500 Descending Miami Center
12:30PM 26.9444 -80.1958 160° South 429 494 19,800 -1,560 Descending Miami Center
12:31PM 26.8431 -80.1533 159° South 402 463 18,200 -1,380 Descending Miami Center
12:32PM 26.7397 -80.1133 161° South 402 463 17,100 -1,440 Descending Miami Center
12:33PM 26.6381 -80.0803 164° South 384 442 15,400 -1,620 Descending Miami Center
12:34PM 26.5778 -80.0717 173° South 380 437 14,700 -1,440 Descending Miami Center
12:34PM 26.5319 -80.0633 171° South 384 442 14,000 -1,380 Descending Miami Center
12:35PM 26.4550 -80.0497 171° South 364 419 13,000 -600 Descending Miami Center
12:36PM 26.3633 -80.0333 171° South 357 411 13,000 -180 Level Miami Center
12:36PM 26.3364 -80.0281 170° South 368 423 12,800 -1,020 Descending Miami Center
12:37PM 26.2656 -80.0214 175° South 352 405 12,000 -1,200 Descending Miami Center
12:37PM 26.2406 -80.0183 174° South 363 418 11,600 -1,260 Descending Miami Center
12:38PM 26.1586 -80.0417 194° South 341 392 10,600 -840 Descending Miami Center
12:39PM 26.0597 -80.0692 194° South 337 388 10,000 -420 Descending Miami Center
12:40PM 25.9714 -80.0992 197° South 333 383 9,800 -720 Descending Miami Center
12:41PM 25.9239 -80.1650 231° Southwest 280 322 8,700 -1,080 Descending Miami Center
12:42PM 25.9033 -80.2450 254° West 291 335 7,900 -1,920 Descending Miami Center
12:43PM 25.8928 -80.3419 263° West 270 311 4,800 -2,280 Descending Miami Center
12:44PM 25.8681 -80.4128 249° West 250 288 3,000 -1,440 Descending Miami Center
12:45PM 25.8125 -80.3764 149° Southeast 209 241 1,900 -1,140 Descending Miami Center
12:46PM 25.7986 -80.3392 113° Southeast 127 146 800 -1,200 Descending Miami Center
12:48PM 25.7954 -80.2901 103° East  Level Estimated
12:55PM 25.7954 -80.2901 103° East  Level Estimated
12:56PM 25.7954 -80.2901 103° East  Level Estimated